sensor_id;sensor_type;location;lat;lon;timestamp;P1;durP1;ratioP1;P2;durP2;ratioP2
59424;SDS011;45231;44.826;20.312;2022-09-09T00:07:07;19.58;;;13.00;;
59424;SDS011;45231;44.826;20.312;2022-09-09T00:09:40;17.15;;;13.10;;
59424;SDS011;45231;44.826;20.312;2022-09-09T00:12:12;21.20;;;13.32;;
59424;SDS011;45231;44.826;20.312;2022-09-09T00:14:47;22.90;;;14.10;;
59424;SDS011;45231;44.826;20.312;2022-09-09T00:20:00;21.58;;;14.32;;
59424;SDS011;45231;44.826;20.312;2022-09-09T00:22:28;21.67;;;14.45;;
59424;SDS011;45231;44.826;20.312;2022-09-09T00:25:09;21.08;;;14.50;;
59424;SDS011;45231;44.826;20.312;2022-09-09T00:30:18;20.67;;;13.00;;
59424;SDS011;45231;44.826;20.312;2022-09-09T00:32:47;18.65;;;12.00;;
59424;SDS011;45231;44.826;20.312;2022-09-09T00:35:18;22.20;;;11.57;;
59424;SDS011;45231;44.826;20.312;2022-09-09T00:37:47;20.00;;;12.05;;
59424;SDS011;45231;44.826;20.312;2022-09-09T00:42:51;19.33;;;11.52;;
59424;SDS011;45231;44.826;20.312;2022-09-09T00:48:10;17.40;;;11.23;;
59424;SDS011;45231;44.826;20.312;2022-09-09T00:50:44;19.17;;;11.98;;
59424;SDS011;45231;44.826;20.312;2022-09-09T00:58:20;17.02;;;11.43;;
59424;SDS011;45231;44.826;20.312;2022-09-09T01:00:50;17.92;;;11.70;;
59424;SDS011;45231;44.826;20.312;2022-09-09T01:03:34;19.65;;;10.95;;
59424;SDS011;45231;44.826;20.312;2022-09-09T01:06:02;19.50;;;10.43;;
59424;SDS011;45231;44.826;20.312;2022-09-09T01:11:15;19.23;;;10.43;;
59424;SDS011;45231;44.826;20.312;2022-09-09T01:13:45;15.50;;;10.10;;
59424;SDS011;45231;44.826;20.312;2022-09-09T01:16:15;17.50;;;11.38;;
59424;SDS011;45231;44.826;20.312;2022-09-09T01:18:46;15.80;;;11.00;;
59424;SDS011;45231;44.826;20.312;2022-09-09T01:26:08;16.85;;;10.75;;
59424;SDS011;45231;44.826;20.312;2022-09-09T01:28:35;18.98;;;11.00;;
59424;SDS011;45231;44.826;20.312;2022-09-09T01:31:03;15.95;;;10.35;;
59424;SDS011;45231;44.826;20.312;2022-09-09T01:33:30;17.25;;;10.70;;
59424;SDS011;45231;44.826;20.312;2022-09-09T01:36:00;16.20;;;9.18;;
59424;SDS011;45231;44.826;20.312;2022-09-09T01:38:28;15.95;;;10.13;;
59424;SDS011;45231;44.826;20.312;2022-09-09T01:40:54;18.63;;;10.52;;
59424;SDS011;45231;44.826;20.312;2022-09-09T01:43:21;15.73;;;10.13;;
59424;SDS011;45231;44.826;20.312;2022-09-09T01:45:48;16.33;;;10.10;;
59424;SDS011;45231;44.826;20.312;2022-09-09T01:48:15;18.13;;;10.40;;
59424;SDS011;45231;44.826;20.312;2022-09-09T01:50:41;17.52;;;9.93;;
59424;SDS011;45231;44.826;20.312;2022-09-09T01:53:07;16.20;;;9.93;;
59424;SDS011;45231;44.826;20.312;2022-09-09T01:55:37;20.48;;;10.35;;
59424;SDS011;45231;44.826;20.312;2022-09-09T02:00:36;19.38;;;10.30;;
59424;SDS011;45231;44.826;20.312;2022-09-09T02:03:21;20.52;;;10.38;;
59424;SDS011;45231;44.826;20.312;2022-09-09T02:05:55;16.80;;;9.77;;
59424;SDS011;45231;44.826;20.312;2022-09-09T02:08:25;18.20;;;9.68;;
59424;SDS011;45231;44.826;20.312;2022-09-09T02:13:18;16.08;;;8.93;;
59424;SDS011;45231;44.826;20.312;2022-09-09T02:15:47;16.20;;;8.88;;
59424;SDS011;45231;44.826;20.312;2022-09-09T02:18:18;17.10;;;9.20;;
59424;SDS011;45231;44.826;20.312;2022-09-09T02:20:48;16.83;;;9.18;;
59424;SDS011;45231;44.826;20.312;2022-09-09T02:23:15;14.02;;;9.02;;
59424;SDS011;45231;44.826;20.312;2022-09-09T02:28:09;14.40;;;8.73;;
59424;SDS011;45231;44.826;20.312;2022-09-09T02:30:36;17.92;;;8.40;;
59424;SDS011;45231;44.826;20.312;2022-09-09T02:33:04;12.52;;;8.65;;
59424;SDS011;45231;44.826;20.312;2022-09-09T02:35:31;14.38;;;8.45;;
59424;SDS011;45231;44.826;20.312;2022-09-09T02:38:00;14.35;;;8.27;;
59424;SDS011;45231;44.826;20.312;2022-09-09T02:40:27;14.02;;;8.50;;
59424;SDS011;45231;44.826;20.312;2022-09-09T02:42:53;16.38;;;8.25;;
59424;SDS011;45231;44.826;20.312;2022-09-09T02:45:21;14.88;;;7.63;;
59424;SDS011;45231;44.826;20.312;2022-09-09T02:55:15;16.73;;;8.30;;
59424;SDS011;45231;44.826;20.312;2022-09-09T02:57:42;12.93;;;8.55;;
59424;SDS011;45231;44.826;20.312;2022-09-09T03:00:10;13.27;;;7.97;;
59424;SDS011;45231;44.826;20.312;2022-09-09T03:05:03;11.40;;;7.40;;
59424;SDS011;45231;44.826;20.312;2022-09-09T03:09:55;15.32;;;9.55;;
59424;SDS011;45231;44.826;20.312;2022-09-09T03:12:21;22.50;;;11.48;;
59424;SDS011;45231;44.826;20.312;2022-09-09T03:14:47;19.10;;;12.07;;
59424;SDS011;45231;44.826;20.312;2022-09-09T03:17:13;19.70;;;12.38;;
59424;SDS011;45231;44.826;20.312;2022-09-09T03:19:40;15.48;;;8.50;;
59424;SDS011;45231;44.826;20.312;2022-09-09T03:22:06;16.52;;;8.77;;
59424;SDS011;45231;44.826;20.312;2022-09-09T03:24:32;15.13;;;8.18;;
59424;SDS011;45231;44.826;20.312;2022-09-09T03:26:58;14.95;;;7.82;;
59424;SDS011;45231;44.826;20.312;2022-09-09T03:29:24;14.43;;;7.88;;
59424;SDS011;45231;44.826;20.312;2022-09-09T03:31:50;19.15;;;9.07;;
59424;SDS011;45231;44.826;20.312;2022-09-09T03:34:16;16.80;;;8.02;;
59424;SDS011;45231;44.826;20.312;2022-09-09T03:36:42;19.90;;;8.95;;
59424;SDS011;45231;44.826;20.312;2022-09-09T03:39:08;19.33;;;9.63;;
59424;SDS011;45231;44.826;20.312;2022-09-09T03:41:34;16.75;;;9.13;;
59424;SDS011;45231;44.826;20.312;2022-09-09T03:44:02;17.27;;;9.55;;
59424;SDS011;45231;44.826;20.312;2022-09-09T03:46:28;18.50;;;9.88;;
59424;SDS011;45231;44.826;20.312;2022-09-09T03:48:54;17.17;;;10.43;;
59424;SDS011;45231;44.826;20.312;2022-09-09T03:51:22;17.45;;;10.45;;
59424;SDS011;45231;44.826;20.312;2022-09-09T03:53:48;16.20;;;9.38;;
59424;SDS011;45231;44.826;20.312;2022-09-09T03:56:14;17.00;;;9.25;;
59424;SDS011;45231;44.826;20.312;2022-09-09T03:58:40;17.23;;;9.10;;
59424;SDS011;45231;44.826;20.312;2022-09-09T04:01:07;19.52;;;9.68;;
59424;SDS011;45231;44.826;20.312;2022-09-09T04:03:34;17.00;;;8.63;;
59424;SDS011;45231;44.826;20.312;2022-09-09T04:06:01;15.60;;;8.65;;
59424;SDS011;45231;44.826;20.312;2022-09-09T04:08:28;13.20;;;8.18;;
59424;SDS011;45231;44.826;20.312;2022-09-09T04:10:56;17.23;;;9.95;;
59424;SDS011;45231;44.826;20.312;2022-09-09T04:13:23;19.05;;;8.55;;
59424;SDS011;45231;44.826;20.312;2022-09-09T04:15:50;17.98;;;9.48;;
59424;SDS011;45231;44.826;20.312;2022-09-09T04:18:16;15.20;;;8.75;;
59424;SDS011;45231;44.826;20.312;2022-09-09T04:20:45;17.13;;;8.68;;
59424;SDS011;45231;44.826;20.312;2022-09-09T04:23:11;16.27;;;9.30;;
59424;SDS011;45231;44.826;20.312;2022-09-09T04:25:42;23.33;;;8.88;;
59424;SDS011;45231;44.826;20.312;2022-09-09T04:28:08;23.05;;;9.25;;
59424;SDS011;45231;44.826;20.312;2022-09-09T04:30:34;17.70;;;9.85;;
59424;SDS011;45231;44.826;20.312;2022-09-09T04:33:00;19.60;;;9.48;;
59424;SDS011;45231;44.826;20.312;2022-09-09T04:35:26;16.33;;;9.88;;
59424;SDS011;45231;44.826;20.312;2022-09-09T04:37:52;17.50;;;10.18;;
59424;SDS011;45231;44.826;20.312;2022-09-09T04:40:18;18.50;;;10.98;;
59424;SDS011;45231;44.826;20.312;2022-09-09T04:42:44;19.70;;;11.13;;
59424;SDS011;45231;44.826;20.312;2022-09-09T04:45:12;24.02;;;11.25;;
59424;SDS011;45231;44.826;20.312;2022-09-09T04:47:39;18.10;;;11.18;;
59424;SDS011;45231;44.826;20.312;2022-09-09T04:50:05;19.50;;;11.68;;
59424;SDS011;45231;44.826;20.312;2022-09-09T04:52:33;20.08;;;12.05;;
59424;SDS011;45231;44.826;20.312;2022-09-09T04:54:59;17.83;;;11.25;;
59424;SDS011;45231;44.826;20.312;2022-09-09T04:57:25;21.70;;;12.50;;
59424;SDS011;45231;44.826;20.312;2022-09-09T04:59:51;20.77;;;12.25;;
59424;SDS011;45231;44.826;20.312;2022-09-09T05:02:17;18.35;;;11.38;;
59424;SDS011;45231;44.826;20.312;2022-09-09T05:04:43;18.63;;;12.43;;
59424;SDS011;45231;44.826;20.312;2022-09-09T05:07:09;22.33;;;11.15;;
59424;SDS011;45231;44.826;20.312;2022-09-09T05:09:35;20.13;;;12.13;;
59424;SDS011;45231;44.826;20.312;2022-09-09T05:12:01;20.40;;;11.98;;
59424;SDS011;45231;44.826;20.312;2022-09-09T05:14:28;19.75;;;11.57;;
59424;SDS011;45231;44.826;20.312;2022-09-09T05:16:55;19.10;;;10.95;;
59424;SDS011;45231;44.826;20.312;2022-09-09T05:19:21;17.92;;;9.80;;
59424;SDS011;45231;44.826;20.312;2022-09-09T05:21:47;16.83;;;10.00;;
59424;SDS011;45231;44.826;20.312;2022-09-09T05:24:13;16.98;;;9.15;;
59424;SDS011;45231;44.826;20.312;2022-09-09T05:26:39;17.45;;;10.25;;
59424;SDS011;45231;44.826;20.312;2022-09-09T05:29:05;19.10;;;9.55;;
59424;SDS011;45231;44.826;20.312;2022-09-09T05:31:31;17.67;;;10.10;;
59424;SDS011;45231;44.826;20.312;2022-09-09T05:33:57;17.33;;;9.48;;
59424;SDS011;45231;44.826;20.312;2022-09-09T05:36:24;16.05;;;9.30;;
59424;SDS011;45231;44.826;20.312;2022-09-09T05:38:50;18.83;;;10.07;;
59424;SDS011;45231;44.826;20.312;2022-09-09T05:41:18;15.13;;;9.25;;
59424;SDS011;45231;44.826;20.312;2022-09-09T05:43:45;17.45;;;9.63;;
59424;SDS011;45231;44.826;20.312;2022-09-09T05:46:18;15.40;;;9.55;;
59424;SDS011;45231;44.826;20.312;2022-09-09T05:48:45;14.27;;;8.98;;
59424;SDS011;45231;44.826;20.312;2022-09-09T05:51:16;16.48;;;8.98;;
59424;SDS011;45231;44.826;20.312;2022-09-09T05:53:43;11.82;;;6.45;;
59424;SDS011;45231;44.826;20.312;2022-09-09T05:58:42;16.73;;;8.00;;
59424;SDS011;45231;44.826;20.312;2022-09-09T06:01:18;11.30;;;7.45;;
59424;SDS011;45231;44.826;20.312;2022-09-09T06:03:45;12.10;;;7.25;;
59424;SDS011;45231;44.826;20.312;2022-09-09T06:06:13;11.68;;;6.60;;
59424;SDS011;45231;44.826;20.312;2022-09-09T06:08:40;17.35;;;7.63;;
59424;SDS011;45231;44.826;20.312;2022-09-09T06:11:08;11.75;;;6.90;;
59424;SDS011;45231;44.826;20.312;2022-09-09T06:13:35;13.02;;;6.55;;
59424;SDS011;45231;44.826;20.312;2022-09-09T06:16:05;12.13;;;6.50;;
59424;SDS011;45231;44.826;20.312;2022-09-09T06:18:32;11.10;;;7.50;;
59424;SDS011;45231;44.826;20.312;2022-09-09T06:20:59;11.85;;;6.47;;
59424;SDS011;45231;44.826;20.312;2022-09-09T06:23:26;15.27;;;7.07;;
59424;SDS011;45231;44.826;20.312;2022-09-09T06:28:27;10.07;;;6.25;;
59424;SDS011;45231;44.826;20.312;2022-09-09T06:31:00;12.35;;;7.47;;
59424;SDS011;45231;44.826;20.312;2022-09-09T06:33:26;18.45;;;8.07;;
59424;SDS011;45231;44.826;20.312;2022-09-09T06:35:53;16.48;;;6.93;;
59424;SDS011;45231;44.826;20.312;2022-09-09T06:38:20;14.40;;;8.43;;
59424;SDS011;45231;44.826;20.312;2022-09-09T06:40:57;14.77;;;7.90;;
59424;SDS011;45231;44.826;20.312;2022-09-09T06:43:27;18.13;;;8.10;;
59424;SDS011;45231;44.826;20.312;2022-09-09T06:45:57;13.20;;;7.70;;
59424;SDS011;45231;44.826;20.312;2022-09-09T06:48:24;11.52;;;7.72;;
59424;SDS011;45231;44.826;20.312;2022-09-09T06:51:15;13.50;;;7.88;;
59424;SDS011;45231;44.826;20.312;2022-09-09T06:53:41;12.80;;;8.00;;
59424;SDS011;45231;44.826;20.312;2022-09-09T06:58:44;19.27;;;8.40;;
59424;SDS011;45231;44.826;20.312;2022-09-09T07:01:12;15.43;;;9.25;;
59424;SDS011;45231;44.826;20.312;2022-09-09T07:03:41;17.55;;;8.73;;
59424;SDS011;45231;44.826;20.312;2022-09-09T07:06:08;16.38;;;8.85;;
59424;SDS011;45231;44.826;20.312;2022-09-09T07:08:39;13.18;;;8.43;;
59424;SDS011;45231;44.826;20.312;2022-09-09T07:11:07;14.52;;;8.30;;
59424;SDS011;45231;44.826;20.312;2022-09-09T07:13:33;15.38;;;9.15;;
59424;SDS011;45231;44.826;20.312;2022-09-09T07:16:03;15.30;;;9.40;;
59424;SDS011;45231;44.826;20.312;2022-09-09T07:18:29;16.13;;;9.38;;
59424;SDS011;45231;44.826;20.312;2022-09-09T07:20:55;17.75;;;9.55;;
59424;SDS011;45231;44.826;20.312;2022-09-09T07:23:22;20.08;;;11.40;;
59424;SDS011;45231;44.826;20.312;2022-09-09T07:25:49;15.68;;;9.98;;
59424;SDS011;45231;44.826;20.312;2022-09-09T07:28:15;16.75;;;11.07;;
59424;SDS011;45231;44.826;20.312;2022-09-09T07:33:08;17.30;;;9.52;;
59424;SDS011;45231;44.826;20.312;2022-09-09T07:35:37;16.02;;;9.90;;
59424;SDS011;45231;44.826;20.312;2022-09-09T07:38:04;18.55;;;10.38;;
59424;SDS011;45231;44.826;20.312;2022-09-09T07:40:31;18.48;;;10.57;;
59424;SDS011;45231;44.826;20.312;2022-09-09T07:42:57;17.13;;;9.70;;
59424;SDS011;45231;44.826;20.312;2022-09-09T07:45:24;18.95;;;10.23;;
59424;SDS011;45231;44.826;20.312;2022-09-09T07:47:53;14.15;;;9.43;;
59424;SDS011;45231;44.826;20.312;2022-09-09T07:50:19;16.13;;;9.18;;
59424;SDS011;45231;44.826;20.312;2022-09-09T07:52:45;17.67;;;9.73;;
59424;SDS011;45231;44.826;20.312;2022-09-09T07:55:11;15.05;;;9.32;;
59424;SDS011;45231;44.826;20.312;2022-09-09T07:57:37;15.93;;;10.10;;
59424;SDS011;45231;44.826;20.312;2022-09-09T08:00:03;15.82;;;9.60;;
59424;SDS011;45231;44.826;20.312;2022-09-09T08:02:30;14.98;;;9.68;;
59424;SDS011;45231;44.826;20.312;2022-09-09T08:04:56;13.20;;;9.90;;
59424;SDS011;45231;44.826;20.312;2022-09-09T08:07:22;17.00;;;10.05;;
59424;SDS011;45231;44.826;20.312;2022-09-09T08:09:49;13.93;;;9.65;;
59424;SDS011;45231;44.826;20.312;2022-09-09T08:12:15;16.00;;;9.25;;
59424;SDS011;45231;44.826;20.312;2022-09-09T08:14:41;13.52;;;9.90;;
59424;SDS011;45231;44.826;20.312;2022-09-09T08:17:08;16.83;;;10.07;;
59424;SDS011;45231;44.826;20.312;2022-09-09T08:19:35;12.90;;;8.55;;
59424;SDS011;45231;44.826;20.312;2022-09-09T08:22:02;13.80;;;8.35;;
59424;SDS011;45231;44.826;20.312;2022-09-09T08:24:28;16.20;;;9.57;;
59424;SDS011;45231;44.826;20.312;2022-09-09T08:29:21;16.08;;;9.32;;
59424;SDS011;45231;44.826;20.312;2022-09-09T08:34:14;17.50;;;10.82;;
59424;SDS011;45231;44.826;20.312;2022-09-09T08:36:41;21.35;;;10.25;;
59424;SDS011;45231;44.826;20.312;2022-09-09T08:39:08;13.43;;;8.50;;
59424;SDS011;45231;44.826;20.312;2022-09-09T08:47:10;16.00;;;8.15;;
59424;SDS011;45231;44.826;20.312;2022-09-09T08:52:27;16.17;;;8.10;;
59424;SDS011;45231;44.826;20.312;2022-09-09T08:54:58;14.95;;;7.45;;
59424;SDS011;45231;44.826;20.312;2022-09-09T08:57:27;15.60;;;6.93;;
59424;SDS011;45231;44.826;20.312;2022-09-09T08:59:55;14.95;;;7.60;;
59424;SDS011;45231;44.826;20.312;2022-09-09T09:10:27;13.82;;;7.30;;
59424;SDS011;45231;44.826;20.312;2022-09-09T09:12:56;13.40;;;6.70;;
59424;SDS011;45231;44.826;20.312;2022-09-09T09:15:27;13.63;;;6.50;;
59424;SDS011;45231;44.826;20.312;2022-09-09T09:17:55;15.15;;;6.60;;
59424;SDS011;45231;44.826;20.312;2022-09-09T09:23:28;13.27;;;5.95;;
59424;SDS011;45231;44.826;20.312;2022-09-09T09:25:57;18.23;;;6.53;;
59424;SDS011;45231;44.826;20.312;2022-09-09T09:28:25;44.13;;;7.68;;
59424;SDS011;45231;44.826;20.312;2022-09-09T09:31:03;13.13;;;6.35;;
59424;SDS011;45231;44.826;20.312;2022-09-09T09:33:49;40.00;;;7.95;;
59424;SDS011;45231;44.826;20.312;2022-09-09T09:36:17;22.80;;;6.55;;
59424;SDS011;45231;44.826;20.312;2022-09-09T09:38:54;13.70;;;6.75;;
59424;SDS011;45231;44.826;20.312;2022-09-09T09:44:23;12.75;;;6.75;;
59424;SDS011;45231;44.826;20.312;2022-09-09T09:46:49;10.63;;;6.50;;
59424;SDS011;45231;44.826;20.312;2022-09-09T09:49:22;9.60;;;5.97;;
59424;SDS011;45231;44.826;20.312;2022-09-09T09:55:12;11.40;;;6.40;;
59424;SDS011;45231;44.826;20.312;2022-09-09T09:58:05;10.50;;;6.40;;
59424;SDS011;45231;44.826;20.312;2022-09-09T10:00:35;13.32;;;6.82;;
59424;SDS011;45231;44.826;20.312;2022-09-09T10:03:13;11.07;;;6.03;;
59424;SDS011;45231;44.826;20.312;2022-09-09T10:05:49;12.45;;;6.93;;
59424;SDS011;45231;44.826;20.312;2022-09-09T10:08:25;10.80;;;5.80;;
59424;SDS011;45231;44.826;20.312;2022-09-09T10:18:58;11.15;;;6.35;;
59424;SDS011;45231;44.826;20.312;2022-09-09T10:21:40;10.25;;;6.05;;
59424;SDS011;45231;44.826;20.312;2022-09-09T10:37:18;9.85;;;6.03;;
59424;SDS011;45231;44.826;20.312;2022-09-09T10:39:48;9.77;;;6.43;;
59424;SDS011;45231;44.826;20.312;2022-09-09T10:42:17;14.80;;;6.72;;
59424;SDS011;45231;44.826;20.312;2022-09-09T10:55:18;9.63;;;6.60;;
59424;SDS011;45231;44.826;20.312;2022-09-09T10:57:46;11.80;;;6.85;;
59424;SDS011;45231;44.826;20.312;2022-09-09T11:00:17;14.80;;;7.10;;
59424;SDS011;45231;44.826;20.312;2022-09-09T11:02:43;12.38;;;6.10;;
59424;SDS011;45231;44.826;20.312;2022-09-09T11:07:37;9.02;;;6.10;;
59424;SDS011;45231;44.826;20.312;2022-09-09T11:10:11;11.65;;;6.65;;
59424;SDS011;45231;44.826;20.312;2022-09-09T11:12:41;13.77;;;7.05;;
59424;SDS011;45231;44.826;20.312;2022-09-09T11:15:14;12.98;;;6.53;;
59424;SDS011;45231;44.826;20.312;2022-09-09T11:17:44;9.25;;;5.75;;
59424;SDS011;45231;44.826;20.312;2022-09-09T11:20:12;9.50;;;6.07;;
59424;SDS011;45231;44.826;20.312;2022-09-09T11:30:16;11.95;;;6.20;;
59424;SDS011;45231;44.826;20.312;2022-09-09T11:40:25;12.43;;;6.70;;
59424;SDS011;45231;44.826;20.312;2022-09-09T11:43:02;11.77;;;6.32;;
59424;SDS011;45231;44.826;20.312;2022-09-09T11:45:30;12.45;;;7.10;;
59424;SDS011;45231;44.826;20.312;2022-09-09T11:47:59;15.27;;;6.75;;
59424;SDS011;45231;44.826;20.312;2022-09-09T11:52:51;9.90;;;5.82;;
59424;SDS011;45231;44.826;20.312;2022-09-09T11:55:29;15.80;;;6.30;;
59424;SDS011;45231;44.826;20.312;2022-09-09T11:57:57;13.02;;;5.50;;
59424;SDS011;45231;44.826;20.312;2022-09-09T12:00:44;9.02;;;4.68;;
59424;SDS011;45231;44.826;20.312;2022-09-09T12:03:33;9.65;;;4.32;;
59424;SDS011;45231;44.826;20.312;2022-09-09T12:05:56;9.82;;;4.18;;
59424;SDS011;45231;44.826;20.312;2022-09-09T12:08:32;10.52;;;5.05;;
59424;SDS011;45231;44.826;20.312;2022-09-09T12:11:01;9.77;;;5.38;;
59424;SDS011;45231;44.826;20.312;2022-09-09T12:13:30;9.02;;;3.75;;
59424;SDS011;45231;44.826;20.312;2022-09-09T12:15:58;11.95;;;4.30;;
59424;SDS011;45231;44.826;20.312;2022-09-09T12:18:25;9.23;;;4.03;;
59424;SDS011;45231;44.826;20.312;2022-09-09T12:23:55;10.20;;;4.53;;
59424;SDS011;45231;44.826;20.312;2022-09-09T12:26:34;9.95;;;4.90;;
59424;SDS011;45231;44.826;20.312;2022-09-09T12:36:36;9.30;;;4.07;;
59424;SDS011;45231;44.826;20.312;2022-09-09T12:39:15;9.00;;;4.72;;
59424;SDS011;45231;44.826;20.312;2022-09-09T12:41:50;10.18;;;5.32;;
59424;SDS011;45231;44.826;20.312;2022-09-09T12:44:18;10.38;;;4.70;;
59424;SDS011;45231;44.826;20.312;2022-09-09T12:46:44;10.20;;;4.95;;
59424;SDS011;45231;44.826;20.312;2022-09-09T12:49:31;8.32;;;4.40;;
59424;SDS011;45231;44.826;20.312;2022-09-09T12:54:49;9.35;;;4.18;;
59424;SDS011;45231;44.826;20.312;2022-09-09T12:57:18;10.57;;;5.00;;
59424;SDS011;45231;44.826;20.312;2022-09-09T12:59:45;7.35;;;4.65;;
59424;SDS011;45231;44.826;20.312;2022-09-09T13:02:21;10.82;;;4.28;;
59424;SDS011;45231;44.826;20.312;2022-09-09T13:07:15;8.25;;;4.45;;
59424;SDS011;45231;44.826;20.312;2022-09-09T13:09:41;8.57;;;4.70;;
59424;SDS011;45231;44.826;20.312;2022-09-09T13:12:11;10.52;;;4.70;;
59424;SDS011;45231;44.826;20.312;2022-09-09T13:14:39;11.82;;;5.57;;
59424;SDS011;45231;44.826;20.312;2022-09-09T13:17:05;10.45;;;5.10;;
59424;SDS011;45231;44.826;20.312;2022-09-09T13:19:34;9.43;;;4.88;;
59424;SDS011;45231;44.826;20.312;2022-09-09T13:22:11;10.93;;;5.68;;
59424;SDS011;45231;44.826;20.312;2022-09-09T13:24:38;11.07;;;5.40;;
59424;SDS011;45231;44.826;20.312;2022-09-09T13:29:52;9.95;;;5.32;;
59424;SDS011;45231;44.826;20.312;2022-09-09T13:32:20;8.95;;;5.20;;
59424;SDS011;45231;44.826;20.312;2022-09-09T13:34:56;14.65;;;6.20;;
59424;SDS011;45231;44.826;20.312;2022-09-09T13:37:24;11.43;;;5.32;;
59424;SDS011;45231;44.826;20.312;2022-09-09T13:39:52;10.70;;;5.55;;
59424;SDS011;45231;44.826;20.312;2022-09-09T13:42:26;12.38;;;5.80;;
59424;SDS011;45231;44.826;20.312;2022-09-09T13:44:52;9.60;;;5.82;;
59424;SDS011;45231;44.826;20.312;2022-09-09T13:47:20;11.35;;;5.47;;
59424;SDS011;45231;44.826;20.312;2022-09-09T13:49:48;11.35;;;5.82;;
59424;SDS011;45231;44.826;20.312;2022-09-09T13:52:15;11.88;;;6.47;;
59424;SDS011;45231;44.826;20.312;2022-09-09T13:54:50;14.38;;;6.85;;
59424;SDS011;45231;44.826;20.312;2022-09-09T13:57:21;10.48;;;5.72;;
59424;SDS011;45231;44.826;20.312;2022-09-09T13:59:48;10.98;;;5.47;;
59424;SDS011;45231;44.826;20.312;2022-09-09T14:02:14;12.40;;;6.60;;
59424;SDS011;45231;44.826;20.312;2022-09-09T14:04:41;11.63;;;6.07;;
59424;SDS011;45231;44.826;20.312;2022-09-09T14:07:14;13.18;;;6.50;;
59424;SDS011;45231;44.826;20.312;2022-09-09T14:09:41;10.75;;;6.10;;
59424;SDS011;45231;44.826;20.312;2022-09-09T14:12:10;10.68;;;5.60;;
59424;SDS011;45231;44.826;20.312;2022-09-09T14:14:37;11.85;;;6.03;;
59424;SDS011;45231;44.826;20.312;2022-09-09T14:17:03;14.15;;;5.95;;
59424;SDS011;45231;44.826;20.312;2022-09-09T14:19:29;11.00;;;5.32;;
59424;SDS011;45231;44.826;20.312;2022-09-09T14:21:56;10.75;;;5.70;;
59424;SDS011;45231;44.826;20.312;2022-09-09T14:24:22;13.23;;;6.25;;
59424;SDS011;45231;44.826;20.312;2022-09-09T14:26:48;12.45;;;6.40;;
59424;SDS011;45231;44.826;20.312;2022-09-09T14:31:40;13.10;;;6.25;;
59424;SDS011;45231;44.826;20.312;2022-09-09T14:36:32;10.37;;;5.13;;
59424;SDS011;45231;44.826;20.312;2022-09-09T14:41:24;11.13;;;5.20;;
59424;SDS011;45231;44.826;20.312;2022-09-09T14:43:50;9.27;;;5.70;;
59424;SDS011;45231;44.826;20.312;2022-09-09T14:46:17;11.95;;;5.65;;
59424;SDS011;45231;44.826;20.312;2022-09-09T14:48:44;10.80;;;5.22;;
59424;SDS011;45231;44.826;20.312;2022-09-09T14:51:23;12.90;;;5.85;;
59424;SDS011;45231;44.826;20.312;2022-09-09T14:53:53;10.98;;;5.10;;
59424;SDS011;45231;44.826;20.312;2022-09-09T14:56:20;9.43;;;5.07;;
59424;SDS011;45231;44.826;20.312;2022-09-09T14:58:47;10.93;;;5.28;;
59424;SDS011;45231;44.826;20.312;2022-09-09T15:03:40;10.00;;;4.80;;
59424;SDS011;45231;44.826;20.312;2022-09-09T15:06:07;9.35;;;4.57;;
59424;SDS011;45231;44.826;20.312;2022-09-09T15:08:34;12.25;;;4.40;;
59424;SDS011;45231;44.826;20.312;2022-09-09T15:11:01;11.57;;;5.22;;
59424;SDS011;45231;44.826;20.312;2022-09-09T15:13:27;9.65;;;4.90;;
59424;SDS011;45231;44.826;20.312;2022-09-09T15:15:53;8.75;;;4.93;;
59424;SDS011;45231;44.826;20.312;2022-09-09T15:20:45;10.38;;;4.82;;
59424;SDS011;45231;44.826;20.312;2022-09-09T15:23:12;11.50;;;4.88;;
59424;SDS011;45231;44.826;20.312;2022-09-09T15:25:39;10.52;;;5.13;;
59424;SDS011;45231;44.826;20.312;2022-09-09T15:28:06;11.02;;;4.93;;
59424;SDS011;45231;44.826;20.312;2022-09-09T15:32:57;9.00;;;4.57;;
59424;SDS011;45231;44.826;20.312;2022-09-09T15:37:49;8.30;;;3.90;;
59424;SDS011;45231;44.826;20.312;2022-09-09T15:42:41;9.50;;;4.38;;
59424;SDS011;45231;44.826;20.312;2022-09-09T15:45:08;9.88;;;4.65;;
59424;SDS011;45231;44.826;20.312;2022-09-09T15:47:34;9.30;;;3.90;;
59424;SDS011;45231;44.826;20.312;2022-09-09T15:50:00;8.18;;;4.47;;
59424;SDS011;45231;44.826;20.312;2022-09-09T15:54:52;10.65;;;4.55;;
59424;SDS011;45231;44.826;20.312;2022-09-09T15:57:19;7.57;;;4.53;;
59424;SDS011;45231;44.826;20.312;2022-09-09T16:02:11;10.15;;;5.22;;
59424;SDS011;45231;44.826;20.312;2022-09-09T16:04:38;15.18;;;5.68;;
59424;SDS011;45231;44.826;20.312;2022-09-09T16:07:07;11.30;;;4.95;;
59424;SDS011;45231;44.826;20.312;2022-09-09T16:09:36;14.45;;;6.03;;
59424;SDS011;45231;44.826;20.312;2022-09-09T16:12:06;9.50;;;4.93;;
59424;SDS011;45231;44.826;20.312;2022-09-09T16:14:36;9.60;;;5.03;;
59424;SDS011;45231;44.826;20.312;2022-09-09T16:17:07;11.93;;;5.28;;
59424;SDS011;45231;44.826;20.312;2022-09-09T16:19:37;10.55;;;5.68;;
59424;SDS011;45231;44.826;20.312;2022-09-09T16:24:31;12.15;;;5.82;;
59424;SDS011;45231;44.826;20.312;2022-09-09T16:26:57;12.18;;;5.53;;
59424;SDS011;45231;44.826;20.312;2022-09-09T16:29:23;11.88;;;5.70;;
59424;SDS011;45231;44.826;20.312;2022-09-09T16:31:52;12.48;;;5.72;;
59424;SDS011;45231;44.826;20.312;2022-09-09T16:34:19;15.40;;;5.85;;
59424;SDS011;45231;44.826;20.312;2022-09-09T16:36:45;14.68;;;5.57;;
59424;SDS011;45231;44.826;20.312;2022-09-09T16:39:13;11.75;;;5.80;;
59424;SDS011;45231;44.826;20.312;2022-09-09T16:41:40;13.10;;;5.65;;
59424;SDS011;45231;44.826;20.312;2022-09-09T16:44:07;11.93;;;6.20;;
59424;SDS011;45231;44.826;20.312;2022-09-09T16:46:37;11.70;;;5.75;;
59424;SDS011;45231;44.826;20.312;2022-09-09T16:49:04;13.23;;;6.00;;
59424;SDS011;45231;44.826;20.312;2022-09-09T16:51:34;11.32;;;6.03;;
59424;SDS011;45231;44.826;20.312;2022-09-09T16:54:02;12.82;;;6.35;;
59424;SDS011;45231;44.826;20.312;2022-09-09T16:56:29;12.38;;;6.70;;
59424;SDS011;45231;44.826;20.312;2022-09-09T16:58:57;12.25;;;6.47;;
59424;SDS011;45231;44.826;20.312;2022-09-09T17:01:24;11.75;;;6.38;;
59424;SDS011;45231;44.826;20.312;2022-09-09T17:03:57;14.32;;;7.25;;
59424;SDS011;45231;44.826;20.312;2022-09-09T17:06:23;14.13;;;6.80;;
59424;SDS011;45231;44.826;20.312;2022-09-09T17:08:53;13.23;;;6.13;;
59424;SDS011;45231;44.826;20.312;2022-09-09T17:11:19;13.05;;;6.70;;
59424;SDS011;45231;44.826;20.312;2022-09-09T17:16:12;17.95;;;6.15;;
59424;SDS011;45231;44.826;20.312;2022-09-09T17:18:39;12.57;;;6.03;;
59424;SDS011;45231;44.826;20.312;2022-09-09T17:21:06;12.52;;;6.43;;
59424;SDS011;45231;44.826;20.312;2022-09-09T17:23:33;15.20;;;6.63;;
59424;SDS011;45231;44.826;20.312;2022-09-09T17:26:02;10.77;;;6.25;;
59424;SDS011;45231;44.826;20.312;2022-09-09T17:28:28;10.77;;;6.07;;
59424;SDS011;45231;44.826;20.312;2022-09-09T17:30:59;12.50;;;6.95;;
59424;SDS011;45231;44.826;20.312;2022-09-09T17:33:29;13.57;;;6.85;;
59424;SDS011;45231;44.826;20.312;2022-09-09T17:36:17;12.98;;;7.40;;
59424;SDS011;45231;44.826;20.312;2022-09-09T17:38:42;13.35;;;6.90;;